Time;durP1;ratioP1;P1;durP2;ratioP2;P2;SDS_P1;SDS_P2;PMS_P1;PMS_P2;Temp;Humidity;BMP_temperature;BMP_pressure;BME280_temperature;BME280_humidity;BME280_pressure;Samples;Min_cycle;Max_cycle;Signal;HPM_P1;HPM_P2
2023/03/24 00:00:50;;;;;;;;;;;13.10;99.90;;;;;;2059546;28;19976;-74
2023/03/24 00:01:51;;;;;;;;;;;13.10;99.90;;;;;;2056769;28;19918;-73
2023/03/24 00:02:51;;;;;;;;;;;13.10;99.90;;;;;;2059220;28;20083;-74
2023/03/24 00:03:52;;;;;;;;;;;13.00;99.90;;;;;;2059162;28;19914;-74
2023/03/24 00:04:57;;;;;;;;;;;13.00;99.90;;;;;;2059920;28;20157;-74
2023/03/24 00:06:00;;;;;;;;;;;13.00;99.90;;;;;;2060598;28;19953;-74
2023/03/24 00:07:02;;;;;;;;;;;13.00;99.90;;;;;;2060079;28;19914;-74
2023/03/24 00:08:02;;;;;;;;;;;13.00;99.90;;;;;;2066484;28;19966;-74
2023/03/24 00:09:03;;;;;;;;;;;13.00;99.90;;;;;;2065601;28;19983;-74
2023/03/24 00:10:05;;;;;;;;;;;13.00;99.90;;;;;;2066635;28;19998;-74
2023/03/24 00:11:07;;;;;;;;;;;13.00;99.90;;;;;;2067068;28;20724;-74
2023/03/24 00:12:11;;;;;;;;;;;13.00;99.90;;;;;;2058951;28;19917;-74
2023/03/24 00:13:11;;;;;;;;;;;13.00;99.90;;;;;;2059614;28;19905;-74
2023/03/24 00:14:12;;;;;;;;;;;13.00;99.90;;;;;;2060478;28;20576;-74
2023/03/24 00:15:14;;;;;;;;;;;13.00;99.90;;;;;;2058996;28;19913;-74
2023/03/24 00:16:15;;;;;;;;;;;13.00;99.90;;;;;;2059745;28;19916;-74
2023/03/24 00:17:16;;;;;;;;;;;13.00;99.90;;;;;;2058118;28;19946;-74
2023/03/24 00:18:17;;;;;;;;;;;13.00;99.90;;;;;;2057031;28;19950;-74
2023/03/24 00:19:18;;;;;;;;;;;13.00;99.90;;;;;;2060042;28;20284;-74
2023/03/24 00:20:20;;;;;;;;;;;13.00;99.90;;;;;;2058510;28;19914;-74
2023/03/24 00:21:23;;;;;;;;;;;13.00;99.90;;;;;;2059514;28;19905;-74
2023/03/24 00:22:27;;;;;;;;;;;13.00;99.90;;;;;;2057367;28;19918;-74
2023/03/24 00:23:32;;;;;;;;;;;13.00;99.90;;;;;;2060620;28;19909;-74
2023/03/24 00:24:33;;;;;;;;;;;13.00;99.90;;;;;;2058888;28;20477;-74
2023/03/24 00:25:35;;;;;;;;;;;13.10;99.90;;;;;;2058797;28;20274;-74
2023/03/24 00:26:36;;;;;;;;;;;13.10;99.90;;;;;;2057599;28;19914;-74
2023/03/24 00:27:37;;;;;;;;;;;13.00;99.90;;;;;;2057279;28;19953;-74
2023/03/24 00:28:38;;;;;;;;;;;13.00;99.90;;;;;;2059891;28;19910;-74
2023/03/24 00:29:39;;;;;;;;;;;13.00;99.90;;;;;;2059977;28;20004;-74
2023/03/24 00:30:40;;;;;;;;;;;13.00;99.90;;;;;;2059630;28;20549;-74
2023/03/24 00:31:41;;;;;;;;;;;13.00;99.90;;;;;;2058915;28;19917;-74
2023/03/24 00:32:42;;;;;;;;;;;13.00;99.90;;;;;;2057055;28;19910;-74
2023/03/24 00:33:43;;;;;;;;;;;13.00;99.90;;;;;;2058423;28;19917;-74
2023/03/24 00:34:44;;;;;;;;;;;13.00;99.90;;;;;;2057961;28;19913;-74
2023/03/24 00:35:47;;;;;;;;;;;13.00;99.90;;;;;;2058452;28;20637;-74
2023/03/24 00:36:48;;;;;;;;;;;13.00;99.90;;;;;;2058991;28;19920;-74
2023/03/24 00:37:51;;;;;;;;;;;13.10;99.90;;;;;;2058947;28;20335;-74
2023/03/24 00:38:52;;;;;;;;;;;13.00;99.90;;;;;;2059882;28;20313;-74
2023/03/24 00:39:52;;;;;;;;;;;13.00;99.90;;;;;;2059120;28;20386;-74
2023/03/24 00:40:53;;;;;;;;;;;13.10;99.90;;;;;;2058676;28;19909;-74
2023/03/24 00:41:57;;;;;;;;;;;13.00;99.90;;;;;;2058841;28;19917;-74
2023/03/24 00:42:58;;;;;;;;;;;13.10;99.90;;;;;;2058708;28;20342;-74
2023/03/24 00:43:59;;;;;;;;;;;13.10;99.90;;;;;;2059025;28;20515;-74
2023/03/24 00:44:59;;;;;;;;;;;13.00;99.90;;;;;;2058391;28;20626;-74
2023/03/24 00:46:00;;;;;;;;;;;13.00;99.90;;;;;;2056161;28;20354;-74
2023/03/24 00:47:01;;;;;;;;;;;13.10;99.90;;;;;;2054019;28;19921;-74
2023/03/24 00:48:03;;;;;;;;;;;13.00;99.90;;;;;;2059206;28;19960;-74
2023/03/24 00:49:06;;;;;;;;;;;13.10;99.90;;;;;;2057530;28;19921;-74
2023/03/24 00:50:08;;;;;;;;;;;13.10;99.90;;;;;;2065490;28;19909;-74
2023/03/24 00:51:09;;;;;;;;;;;13.10;99.90;;;;;;2062989;28;19918;-74
2023/03/24 00:52:11;;;;;;;;;;;13.10;99.90;;;;;;2058293;28;19925;-74
2023/03/24 00:53:14;;;;;;;;;;;13.10;99.90;;;;;;2057901;28;19910;-74
2023/03/24 00:54:15;;;;;;;;;;;13.10;99.90;;;;;;2059573;28;19906;-74
2023/03/24 00:55:15;;;;;;;;;;;13.10;99.90;;;;;;2057172;28;20370;-74
2023/03/24 00:56:16;;;;;;;;;;;13.00;99.90;;;;;;2059034;28;20374;-74
2023/03/24 00:57:20;;;;;;;;;;;13.10;99.90;;;;;;2058807;28;19926;-74
2023/03/24 00:58:21;;;;;;;;;;;13.10;99.90;;;;;;2060110;28;19913;-74
2023/03/24 00:59:22;;;;;;;;;;;13.10;99.90;;;;;;2059137;28;19910;-74
2023/03/24 01:00:23;;;;;;;;;;;13.10;99.90;;;;;;2073600;28;19909;-74
2023/03/24 01:01:26;;;;;;;;;;;13.10;99.90;;;;;;2074416;28;19916;-74
2023/03/24 01:02:27;;;;;;;;;;;13.10;99.90;;;;;;2057419;28;19913;-74
2023/03/24 01:03:28;;;;;;;;;;;13.10;99.90;;;;;;2058930;28;19922;-74
2023/03/24 01:04:29;;;;;;;;;;;13.10;99.90;;;;;;2056930;28;19909;-74
2023/03/24 01:05:30;;;;;;;;;;;13.10;99.90;;;;;;2058398;28;20342;-74
2023/03/24 01:06:30;;;;;;;;;;;13.10;99.90;;;;;;2058681;28;19910;-74
2023/03/24 01:07:31;;;;;;;;;;;13.10;99.90;;;;;;2059356;28;19940;-74
2023/03/24 01:08:31;;;;;;;;;;;13.10;99.90;;;;;;2056759;28;19910;-74
2023/03/24 01:09:36;;;;;;;;;;;13.10;99.90;;;;;;2058848;28;20048;-74
2023/03/24 01:10:49;;;;;;;;;;;13.10;99.90;;;;;;2057806;28;19913;-74
2023/03/24 01:11:50;;;;;;;;;;;13.10;99.90;;;;;;2057321;28;19914;-74
2023/03/24 01:12:51;;;;;;;;;;;13.10;99.90;;;;;;2058027;28;19917;-74
2023/03/24 01:13:53;;;;;;;;;;;13.10;99.90;;;;;;2058815;28;19914;-74
2023/03/24 01:14:53;;;;;;;;;;;13.10;99.90;;;;;;2058304;28;19929;-74
2023/03/24 01:15:54;;;;;;;;;;;13.10;99.90;;;;;;2074049;28;19979;-74
2023/03/24 01:16:55;;;;;;;;;;;13.10;99.90;;;;;;2072787;28;19909;-74
2023/03/24 01:17:56;;;;;;;;;;;13.10;99.90;;;;;;2056932;28;19920;-74
2023/03/24 01:18:58;;;;;;;;;;;13.10;99.90;;;;;;2073431;28;19914;-74
2023/03/24 01:19:59;;;;;;;;;;;13.10;99.90;;;;;;2072952;28;19913;-74
2023/03/24 01:21:00;;;;;;;;;;;13.10;99.90;;;;;;2059375;28;19905;-73
2023/03/24 01:22:01;;;;;;;;;;;13.10;99.90;;;;;;2059529;28;20315;-74
2023/03/24 01:23:04;;;;;;;;;;;13.10;99.90;;;;;;2058921;28;19910;-74
2023/03/24 01:24:04;;;;;;;;;;;13.10;99.90;;;;;;2056851;28;19910;-74
2023/03/24 01:25:10;;;;;;;;;;;13.20;99.90;;;;;;2074539;28;19951;-74
2023/03/24 01:26:11;;;;;;;;;;;13.10;99.90;;;;;;2072365;28;19913;-74
2023/03/24 01:27:12;;;;;;;;;;;13.20;99.90;;;;;;2057801;28;19910;-74
2023/03/24 01:28:14;;;;;;;;;;;13.20;99.90;;;;;;2065911;28;20035;-74
2023/03/24 01:29:15;;;;;;;;;;;13.10;99.90;;;;;;2065450;28;19910;-74
2023/03/24 01:30:17;;;;;;;;;;;13.20;99.90;;;;;;2056569;28;20392;-74
2023/03/24 01:31:17;;;;;;;;;;;13.20;99.90;;;;;;2057946;28;19933;-74
2023/03/24 01:32:17;;;;;;;;;;;13.10;99.90;;;;;;2056587;28;19925;-74
2023/03/24 01:33:18;;;;;;;;;;;13.20;99.90;;;;;;2057443;28;20703;-74
2023/03/24 01:34:19;;;;;;;;;;;13.20;99.90;;;;;;2057796;28;19929;-74
2023/03/24 01:35:20;;;;;;;;;;;13.20;99.90;;;;;;2057728;28;19910;-74
2023/03/24 01:36:20;;;;;;;;;;;13.20;99.90;;;;;;2058236;28;19905;-74
2023/03/24 01:37:22;;;;;;;;;;;13.20;99.90;;;;;;2056253;28;19933;-74
2023/03/24 01:38:22;;;;;;;;;;;13.20;99.90;;;;;;2056919;28;20610;-74
2023/03/24 01:39:23;;;;;;;;;;;13.20;99.90;;;;;;2057858;28;19914;-74
2023/03/24 01:40:25;;;;;;;;;;;13.20;99.90;;;;;;2058131;28;19954;-74
2023/03/24 01:41:27;;;;;;;;;;;13.20;99.90;;;;;;2056862;28;19917;-74
2023/03/24 01:42:27;;;;;;;;;;;13.10;99.90;;;;;;2059930;28;19957;-74
2023/03/24 01:43:32;;;;;;;;;;;13.20;99.90;;;;;;2057830;28;20016;-74
2023/03/24 01:44:32;;;;;;;;;;;13.20;99.90;;;;;;2059520;28;19997;-74
2023/03/24 01:45:41;;;;;;;;;;;13.20;99.90;;;;;;2058121;28;19914;-74
2023/03/24 01:46:42;;;;;;;;;;;13.10;99.90;;;;;;2057402;28;20023;-74
2023/03/24 01:47:42;;;;;;;;;;;13.20;99.90;;;;;;2060467;28;19913;-74
2023/03/24 01:49:03;;;;;;;;;;;13.20;99.90;;;;;;2057036;28;19920;-74
2023/03/24 01:50:04;;;;;;;;;;;13.10;99.90;;;;;;2063399;28;20749;-74
2023/03/24 01:51:08;;;;;;;;;;;13.20;99.90;;;;;;2064765;28;19918;-74
2023/03/24 01:52:12;;;;;;;;;;;13.20;99.90;;;;;;2058268;28;19913;-74
2023/03/24 01:53:14;;;;;;;;;;;13.10;99.90;;;;;;2057189;28;19949;-74
2023/03/24 01:54:19;;;;;;;;;;;13.20;99.90;;;;;;2057246;28;20620;-74
2023/03/24 01:55:20;;;;;;;;;;;13.10;99.90;;;;;;2057976;28;20016;-74
2023/03/24 01:56:20;;;;;;;;;;;13.20;99.90;;;;;;2059627;28;19913;-74
2023/03/24 01:57:21;;;;;;;;;;;13.20;99.90;;;;;;2059253;28;20421;-74
2023/03/24 01:58:22;;;;;;;;;;;13.10;99.90;;;;;;2065100;28;19923;-74
2023/03/24 01:59:26;;;;;;;;;;;13.20;99.90;;;;;;2075397;28;19956;-74
2023/03/24 02:00:27;;;;;;;;;;;13.10;99.90;;;;;;2074582;28;19920;-74
2023/03/24 02:01:29;;;;;;;;;;;13.10;99.90;;;;;;2058038;28;19914;-74
2023/03/24 02:02:33;;;;;;;;;;;13.10;99.90;;;;;;2060267;28;19914;-74
2023/03/24 02:03:37;;;;;;;;;;;13.20;99.90;;;;;;2058621;28;20390;-74
2023/03/24 02:04:47;;;;;;;;;;;13.20;99.90;;;;;;2061805;28;19956;-74
2023/03/24 02:05:49;;;;;;;;;;;13.20;99.90;;;;;;2058183;28;20004;-74
2023/03/24 02:06:50;;;;;;;;;;;13.20;99.90;;;;;;2059805;28;19910;-74
2023/03/24 02:07:53;;;;;;;;;;;13.10;99.90;;;;;;2058382;28;20000;-74
2023/03/24 02:08:55;;;;;;;;;;;13.10;99.90;;;;;;2056206;28;20000;-74
2023/03/24 02:09:56;;;;;;;;;;;13.20;99.90;;;;;;2059537;28;20311;-74
2023/03/24 02:10:57;;;;;;;;;;;13.20;99.90;;;;;;2060067;28;20360;-74
2023/03/24 02:11:59;;;;;;;;;;;13.20;99.90;;;;;;2060649;28;19912;-74
2023/03/24 02:13:00;;;;;;;;;;;13.20;99.90;;;;;;2059665;28;19914;-74
2023/03/24 02:14:01;;;;;;;;;;;13.20;99.90;;;;;;2060332;28;19910;-74
2023/03/24 02:15:02;;;;;;;;;;;13.20;99.90;;;;;;2059130;28;20015;-74
2023/03/24 02:16:11;;;;;;;;;;;13.20;99.90;;;;;;2059083;28;20341;-74
2023/03/24 02:17:41;;;;;;;;;;;13.20;99.90;;;;;;2059092;28;19913;-74
2023/03/24 02:19:04;;;;;;;;;;;13.20;99.90;;;;;;2064376;28;19914;-74
2023/03/24 02:20:11;;;;;;;;;;;13.20;99.90;;;;;;2074821;28;19909;-74
2023/03/24 02:21:11;;;;;;;;;;;13.20;99.90;;;;;;2072434;28;19913;-74
2023/03/24 02:22:15;;;;;;;;;;;13.20;99.90;;;;;;2061732;28;19913;-74
2023/03/24 02:23:21;;;;;;;;;;;13.20;99.90;;;;;;2059787;28;19905;-74
2023/03/24 02:24:39;;;;;;;;;;;13.20;99.90;;;;;;2066737;28;20004;-74
2023/03/24 02:25:42;;;;;;;;;;;13.20;99.90;;;;;;2066616;28;19913;-73
2023/03/24 02:26:49;;;;;;;;;;;13.30;99.90;;;;;;2061281;28;19906;-74
2023/03/24 02:27:50;;;;;;;;;;;13.20;99.90;;;;;;2058068;28;19910;-74
2023/03/24 02:28:50;;;;;;;;;;;13.20;99.90;;;;;;2057850;28;20559;-74
2023/03/24 02:30:01;;;;;;;;;;;13.20;99.90;;;;;;2056746;28;19910;-74
2023/03/24 02:31:27;;;;;;;;;;;13.20;99.90;;;;;;2067152;28;20535;-74
2023/03/24 02:32:47;;;;;;;;;;;13.20;99.90;;;;;;2062351;28;19921;-74
2023/03/24 02:34:00;;;;;;;;;;;13.20;99.90;;;;;;2059964;28;19910;-74
2023/03/24 02:35:12;;;;;;;;;;;13.20;99.90;;;;;;2066328;28;20008;-75
2023/03/24 02:36:16;;;;;;;;;;;13.30;99.90;;;;;;2065175;28;20401;-74
2023/03/24 02:37:34;;;;;;;;;;;13.30;99.90;;;;;;2060424;28;19918;-74
2023/03/24 02:38:45;;;;;;;;;;;13.20;99.90;;;;;;2060276;28;19918;-74
2023/03/24 02:40:07;;;;;;;;;;;13.20;99.90;;;;;;2058874;28;19953;-74
2023/03/24 02:41:34;;;;;;;;;;;13.30;99.90;;;;;;2059488;28;19918;-74
2023/03/24 02:42:37;;;;;;;;;;;13.30;99.90;;;;;;2058981;28;19914;-74
2023/03/24 02:43:40;;;;;;;;;;;13.30;99.90;;;;;;2059090;28;20434;-74
2023/03/24 02:44:49;;;;;;;;;;;13.30;99.90;;;;;;2058073;28;19909;-74
2023/03/24 02:45:55;;;;;;;;;;;13.30;99.90;;;;;;2060513;28;20332;-74
2023/03/24 02:47:15;;;;;;;;;;;13.20;99.90;;;;;;2074829;28;19912;-74
2023/03/24 02:48:28;;;;;;;;;;;13.20;99.90;;;;;;2072069;28;19910;-74
2023/03/24 02:49:54;;;;;;;;;;;13.30;99.90;;;;;;2059172;28;19931;-74
2023/03/24 02:51:00;;;;;;;;;;;13.30;99.90;;;;;;2066161;28;19914;-74
2023/03/24 02:52:04;;;;;;;;;;;13.30;99.90;;;;;;2064770;28;19905;-74
2023/03/24 02:53:15;;;;;;;;;;;13.20;99.90;;;;;;2057122;28;19910;-75
2023/03/24 02:54:25;;;;;;;;;;;13.20;99.90;;;;;;2061005;28;19914;-74
2023/03/24 02:55:30;;;;;;;;;;;13.20;99.90;;;;;;2060807;28;19910;-74
2023/03/24 02:56:36;;;;;;;;;;;13.20;99.90;;;;;;2059724;28;19976;-74
2023/03/24 02:57:53;;;;;;;;;;;13.30;99.90;;;;;;2058684;28;20354;-74
2023/03/24 02:59:04;;;;;;;;;;;13.30;99.90;;;;;;2058949;28;20319;-74
2023/03/24 03:00:08;;;;;;;;;;;13.30;99.90;;;;;;2075145;28;20377;-74
2023/03/24 03:01:19;;;;;;;;;;;13.30;99.90;;;;;;2073658;28;20008;-74
2023/03/24 03:02:22;;;;;;;;;;;13.30;99.90;;;;;;2059168;28;19910;-75
2023/03/24 03:03:26;;;;;;;;;;;13.30;99.90;;;;;;2059210;28;19914;-74
2023/03/24 03:04:31;;;;;;;;;;;13.30;99.90;;;;;;2058709;28;20043;-74
2023/03/24 03:05:34;;;;;;;;;;;13.30;99.90;;;;;;2059028;28;19972;-74
2023/03/24 03:06:38;;;;;;;;;;;13.30;99.90;;;;;;2059496;28;19916;-74
2023/03/24 03:07:40;;;;;;;;;;;13.30;99.90;;;;;;2059366;28;19925;-74
2023/03/24 03:08:40;;;;;;;;;;;13.30;99.90;;;;;;2059480;28;20301;-74
2023/03/24 03:09:46;;;;;;;;;;;13.30;99.90;;;;;;2057763;28;19909;-74
2023/03/24 03:10:49;;;;;;;;;;;13.30;99.90;;;;;;2057594;28;20313;-74
2023/03/24 03:11:51;;;;;;;;;;;13.40;99.90;;;;;;2060437;28;19910;-74
2023/03/24 03:12:54;;;;;;;;;;;13.30;99.90;;;;;;2057864;28;19913;-74
2023/03/24 03:14:15;;;;;;;;;;;13.30;99.90;;;;;;2058134;28;19926;-74
2023/03/24 03:15:20;;;;;;;;;;;13.40;99.90;;;;;;2062448;28;20374;-74
2023/03/24 03:16:44;;;;;;;;;;;13.40;99.90;;;;;;2059729;28;19912;-74
2023/03/24 03:17:48;;;;;;;;;;;13.40;99.90;;;;;;2057947;28;20368;-74
2023/03/24 03:18:50;;;;;;;;;;;13.40;99.90;;;;;;2057715;28;19920;-74
2023/03/24 03:19:56;;;;;;;;;;;13.40;99.90;;;;;;2055917;28;19914;-74
2023/03/24 03:21:04;;;;;;;;;;;13.40;99.90;;;;;;2058876;28;19910;-74
2023/03/24 03:22:07;;;;;;;;;;;13.40;99.90;;;;;;2072987;28;20523;-74
2023/03/24 03:23:13;;;;;;;;;;;13.40;99.90;;;;;;2073286;28;19905;-73
2023/03/24 03:24:18;;;;;;;;;;;13.50;99.90;;;;;;2059181;28;19918;-74
2023/03/24 03:25:25;;;;;;;;;;;13.50;99.90;;;;;;2059089;28;20049;-74
2023/03/24 03:26:27;;;;;;;;;;;13.40;99.90;;;;;;2057884;28;20453;-74
2023/03/24 03:27:30;;;;;;;;;;;13.50;99.90;;;;;;2057234;28;19914;-74
2023/03/24 03:28:31;;;;;;;;;;;13.50;99.90;;;;;;2058518;28;19910;-74
2023/03/24 03:29:34;;;;;;;;;;;13.50;99.90;;;;;;2058744;28;20385;-74
2023/03/24 03:30:39;;;;;;;;;;;13.50;99.90;;;;;;2058014;28;19992;-74
2023/03/24 03:31:42;;;;;;;;;;;13.50;99.90;;;;;;2058720;28;19909;-74
2023/03/24 03:32:53;;;;;;;;;;;13.50;99.90;;;;;;2058726;28;20020;-74
2023/03/24 03:33:58;;;;;;;;;;;13.50;99.90;;;;;;2058055;28;19910;-74
2023/03/24 03:35:19;;;;;;;;;;;13.50;99.90;;;;;;2066395;28;20385;-74
2023/03/24 03:36:22;;;;;;;;;;;13.50;99.90;;;;;;2058401;28;19968;-74
2023/03/24 03:37:44;;;;;;;;;;;13.50;99.90;;;;;;2060631;28;19906;-74
2023/03/24 03:38:48;;;;;;;;;;;13.50;99.90;;;;;;2058762;28;20012;-74
2023/03/24 03:39:51;;;;;;;;;;;13.50;99.90;;;;;;2061428;28;20500;-74
2023/03/24 03:40:51;;;;;;;;;;;13.50;99.90;;;;;;2060517;28;19944;-74
2023/03/24 03:41:52;;;;;;;;;;;13.60;99.90;;;;;;2060191;28;19930;-74
2023/03/24 03:42:53;;;;;;;;;;;13.60;99.90;;;;;;2058428;28;20327;-74
2023/03/24 03:43:53;;;;;;;;;;;13.60;99.90;;;;;;2065942;28;19976;-74
2023/03/24 03:44:54;;;;;;;;;;;13.60;99.90;;;;;;2064779;28;19917;-74
2023/03/24 03:45:54;;;;;;;;;;;13.60;99.90;;;;;;2058386;28;20366;-74
2023/03/24 03:46:55;;;;;;;;;;;13.60;99.90;;;;;;2057417;28;19910;-74
2023/03/24 03:47:55;;;;;;;;;;;13.60;99.90;;;;;;2057177;28;19909;-74
2023/03/24 03:48:56;;;;;;;;;;;13.60;99.90;;;;;;2058063;28;19913;-73
2023/03/24 03:49:56;;;;;;;;;;;13.60;99.90;;;;;;2073631;28;20428;-74
2023/03/24 03:50:57;;;;;;;;;;;13.60;99.90;;;;;;2037217;28;1039653;-74
2023/03/24 03:51:57;;;;;;;;;;;13.60;99.90;;;;;;2059451;28;19969;-74
2023/03/24 03:52:59;;;;;;;;;;;13.60;99.90;;;;;;2059369;28;20001;-74
2023/03/24 03:54:02;;;;;;;;;;;13.60;99.90;;;;;;2058594;28;20327;-74
2023/03/24 03:55:03;;;;;;;;;;;13.60;99.90;;;;;;2059148;28;19914;-74
2023/03/24 03:56:03;;;;;;;;;;;13.60;99.90;;;;;;2074541;28;19996;-74
2023/03/24 03:57:04;;;;;;;;;;;13.60;99.90;;;;;;2072964;28;19909;-74
2023/03/24 03:58:05;;;;;;;;;;;13.60;99.90;;;;;;2066131;28;19963;-74
2023/03/24 03:59:06;;;;;;;;;;;13.60;99.90;;;;;;2066402;28;19906;-74
2023/03/24 04:00:10;;;;;;;;;;;13.70;99.90;;;;;;2057548;28;19917;-74
2023/03/24 04:01:14;;;;;;;;;;;13.70;99.90;;;;;;2058604;28;20042;-74
2023/03/24 04:02:20;;;;;;;;;;;13.70;99.90;;;;;;2058236;28;19910;-74
2023/03/24 04:03:21;;;;;;;;;;;13.70;99.90;;;;;;2058566;28;20392;-74
2023/03/24 04:04:24;;;;;;;;;;;13.70;99.90;;;;;;2059588;28;20342;-74
2023/03/24 04:05:25;;;;;;;;;;;13.70;99.90;;;;;;2057671;28;19965;-74
2023/03/24 04:06:35;;;;;;;;;;;13.70;99.90;;;;;;2058005;28;19961;-74
2023/03/24 04:08:02;;;;;;;;;;;13.70;99.90;;;;;;2058527;28;19961;-74
2023/03/24 04:09:15;;;;;;;;;;;13.70;99.90;;;;;;2059200;28;20289;-74
2023/03/24 04:10:21;;;;;;;;;;;13.70;99.90;;;;;;2059737;28;19917;-74
2023/03/24 04:11:31;;;;;;;;;;;13.70;99.90;;;;;;2058507;28;19914;-74
2023/03/24 04:12:49;;;;;;;;;;;13.70;99.90;;;;;;2066882;28;19929;-74
2023/03/24 04:13:59;;;;;;;;;;;13.70;99.90;;;;;;2066369;28;20396;-74
2023/03/24 04:15:18;;;;;;;;;;;13.70;99.90;;;;;;2065229;28;19984;-74
2023/03/24 04:16:19;;;;;;;;;;;13.70;99.90;;;;;;2056750;28;20044;-74
2023/03/24 04:17:39;;;;;;;;;;;13.70;99.90;;;;;;2058462;28;19909;-73
2023/03/24 04:18:47;;;;;;;;;;;13.70;99.90;;;;;;2060729;28;19914;-74
2023/03/24 04:20:00;;;;;;;;;;;13.70;99.90;;;;;;2057932;28;19910;-74
2023/03/24 04:21:13;;;;;;;;;;;13.70;99.90;;;;;;2057448;28;19918;-74
2023/03/24 04:22:16;;;;;;;;;;;13.70;99.90;;;;;;2056649;28;19918;-74
2023/03/24 04:23:39;;;;;;;;;;;13.70;99.90;;;;;;2057528;28;19917;-74
2023/03/24 04:24:43;;;;;;;;;;;13.70;99.90;;;;;;2058582;28;19910;-74
2023/03/24 04:26:02;;;;;;;;;;;13.70;99.90;;;;;;2058222;28;19984;-74
2023/03/24 04:27:13;;;;;;;;;;;13.60;99.90;;;;;;2060255;28;20285;-74
2023/03/24 04:28:31;;;;;;;;;;;13.70;99.90;;;;;;2059935;28;20027;-74
2023/03/24 04:29:32;;;;;;;;;;;13.60;99.90;;;;;;2058209;28;19937;-74
2023/03/24 04:30:36;;;;;;;;;;;13.60;99.90;;;;;;2058318;28;19910;-74
2023/03/24 04:31:40;;;;;;;;;;;13.60;99.90;;;;;;2059241;28;19910;-74
2023/03/24 04:32:46;;;;;;;;;;;13.60;99.90;;;;;;2059524;28;19964;-74
2023/03/24 04:33:49;;;;;;;;;;;13.60;99.90;;;;;;2059960;28;19909;-74
2023/03/24 04:34:54;;;;;;;;;;;13.60;99.90;;;;;;2061176;28;19920;-74
2023/03/24 04:36:15;;;;;;;;;;;13.60;99.90;;;;;;2058769;28;19916;-74
2023/03/24 04:37:18;;;;;;;;;;;13.60;99.90;;;;;;2059093;28;19920;-74
2023/03/24 04:38:24;;;;;;;;;;;13.60;99.90;;;;;;2057459;28;19945;-74
2023/03/24 04:39:27;;;;;;;;;;;13.60;99.90;;;;;;2065184;28;19914;-74
2023/03/24 04:40:31;;;;;;;;;;;13.60;99.90;;;;;;2064749;28;19929;-74
2023/03/24 04:41:32;;;;;;;;;;;13.50;99.90;;;;;;2057692;28;19964;-74
2023/03/24 04:42:35;;;;;;;;;;;13.50;99.90;;;;;;2058958;28;20076;-74
2023/03/24 04:43:36;;;;;;;;;;;13.50;99.90;;;;;;2060721;28;19918;-74
2023/03/24 04:44:37;;;;;;;;;;;13.50;99.90;;;;;;2058834;28;20702;-74
2023/03/24 04:45:37;;;;;;;;;;;13.50;99.90;;;;;;2059237;28;19992;-74
2023/03/24 04:46:38;;;;;;;;;;;13.50;99.90;;;;;;2066957;28;19909;-74
2023/03/24 04:47:44;;;;;;;;;;;13.50;99.90;;;;;;2066343;28;20372;-74
2023/03/24 04:48:47;;;;;;;;;;;13.50;99.90;;;;;;2059600;28;20000;-74
2023/03/24 04:49:47;;;;;;;;;;;13.50;99.90;;;;;;2058386;28;19905;-74
2023/03/24 04:50:59;;;;;;;;;;;13.50;99.90;;;;;;2058673;28;19928;-74
2023/03/24 04:52:00;;;;;;;;;;;13.50;99.90;;;;;;2057763;28;19910;-74
2023/03/24 04:53:00;;;;;;;;;;;13.50;99.90;;;;;;2056871;28;20350;-74
2023/03/24 04:54:01;;;;;;;;;;;13.50;99.90;;;;;;2059221;28;19913;-74
2023/03/24 04:55:04;;;;;;;;;;;13.50;99.90;;;;;;2059108;28;20745;-74
2023/03/24 04:56:05;;;;;;;;;;;13.50;99.90;;;;;;2058263;28;19909;-74
2023/03/24 04:57:06;;;;;;;;;;;13.50;99.90;;;;;;2059356;28;19936;-74
2023/03/24 04:58:06;;;;;;;;;;;13.50;99.90;;;;;;2058679;28;19997;-74
2023/03/24 04:59:07;;;;;;;;;;;13.50;99.90;;;;;;2066639;28;20000;-74
2023/03/24 05:00:08;;;;;;;;;;;13.50;99.90;;;;;;2058120;28;19944;-74
2023/03/24 05:01:08;;;;;;;;;;;13.50;99.90;;;;;;2058117;28;19914;-74
2023/03/24 05:02:09;;;;;;;;;;;13.50;99.90;;;;;;2058530;28;19914;-74
2023/03/24 05:03:12;;;;;;;;;;;13.50;99.90;;;;;;2064300;28;19913;-74
2023/03/24 05:04:13;;;;;;;;;;;13.50;99.90;;;;;;2060666;28;20340;-74
2023/03/24 05:05:14;;;;;;;;;;;13.50;99.90;;;;;;2061677;28;20023;-74
2023/03/24 05:06:16;;;;;;;;;;;13.50;99.90;;;;;;2059663;28;19923;-74
2023/03/24 05:07:16;;;;;;;;;;;13.50;99.90;;;;;;2057132;28;19996;-74
2023/03/24 05:08:17;;;;;;;;;;;13.50;99.90;;;;;;2059490;28;19917;-74
2023/03/24 05:09:22;;;;;;;;;;;13.50;99.90;;;;;;2057849;28;19906;-74
2023/03/24 05:10:23;;;;;;;;;;;13.50;99.90;;;;;;2057353;28;20378;-74
2023/03/24 05:11:24;;;;;;;;;;;13.50;99.90;;;;;;2059098;28;20019;-74
2023/03/24 05:12:24;;;;;;;;;;;13.50;99.90;;;;;;2056687;28;19914;-74
2023/03/24 05:13:24;;;;;;;;;;;13.50;99.90;;;;;;2059476;28;19967;-74
2023/03/24 05:14:25;;;;;;;;;;;13.40;99.90;;;;;;2056176;28;19929;-74
2023/03/24 05:15:26;;;;;;;;;;;13.40;99.90;;;;;;2057295;28;19910;-74
2023/03/24 05:16:26;;;;;;;;;;;13.40;99.90;;;;;;2058312;28;19921;-73
2023/03/24 05:17:26;;;;;;;;;;;13.40;99.90;;;;;;2073471;28;19909;-74
2023/03/24 05:18:27;;;;;;;;;;;13.40;99.90;;;;;;2073626;28;19913;-74
2023/03/24 05:19:27;;;;;;;;;;;13.40;99.90;;;;;;2058711;28;19910;-74
2023/03/24 05:20:28;;;;;;;;;;;13.40;99.90;;;;;;2055922;28;19960;-74
2023/03/24 05:21:29;;;;;;;;;;;13.40;99.90;;;;;;2057056;28;19910;-73
2023/03/24 05:22:30;;;;;;;;;;;13.40;99.90;;;;;;2060045;28;19914;-74
2023/03/24 05:23:30;;;;;;;;;;;13.40;99.90;;;;;;2057847;28;20010;-74
2023/03/24 05:24:31;;;;;;;;;;;13.40;99.90;;;;;;2058317;28;20732;-74
2023/03/24 05:25:31;;;;;;;;;;;13.40;99.90;;;;;;2058757;28;20413;-74
2023/03/24 05:26:32;;;;;;;;;;;13.40;99.90;;;;;;2057709;28;20112;-74
2023/03/24 05:27:33;;;;;;;;;;;13.40;99.90;;;;;;2058237;28;19941;-74
2023/03/24 05:28:33;;;;;;;;;;;13.30;99.90;;;;;;2059783;28;20405;-74
2023/03/24 05:29:34;;;;;;;;;;;13.30;99.90;;;;;;2059263;28;20591;-74
2023/03/24 05:30:34;;;;;;;;;;;13.30;99.90;;;;;;2057269;28;19910;-74
2023/03/24 05:31:35;;;;;;;;;;;13.40;99.90;;;;;;2065501;28;19914;-74
2023/03/24 05:32:35;;;;;;;;;;;13.30;99.90;;;;;;2061911;28;19917;-74
2023/03/24 05:33:36;;;;;;;;;;;13.30;99.90;;;;;;2061709;28;19909;-74
2023/03/24 05:34:36;;;;;;;;;;;13.20;99.90;;;;;;2058854;28;19988;-73
2023/03/24 05:35:37;;;;;;;;;;;13.20;99.90;;;;;;2067032;28;19909;-74
2023/03/24 05:36:37;;;;;;;;;;;13.30;99.90;;;;;;2064717;28;19914;-74
2023/03/24 05:37:38;;;;;;;;;;;13.20;99.90;;;;;;2059203;28;19948;-73
2023/03/24 05:38:38;;;;;;;;;;;13.20;99.90;;;;;;2060126;28;20413;-74
2023/03/24 05:39:39;;;;;;;;;;;13.20;99.90;;;;;;2058060;28;19949;-74
2023/03/24 05:40:40;;;;;;;;;;;13.20;99.90;;;;;;2057965;28;20313;-74
2023/03/24 05:41:40;;;;;;;;;;;13.20;99.90;;;;;;2058080;28;19996;-74
2023/03/24 05:42:41;;;;;;;;;;;13.20;99.90;;;;;;2059578;28;20366;-74
2023/03/24 05:43:41;;;;;;;;;;;13.20;99.90;;;;;;2059139;28;19965;-74
2023/03/24 05:44:42;;;;;;;;;;;13.10;99.90;;;;;;2064495;28;19910;-74
2023/03/24 05:45:43;;;;;;;;;;;13.20;99.90;;;;;;2067115;28;19975;-74
2023/03/24 05:46:43;;;;;;;;;;;13.20;99.90;;;;;;2058499;28;19917;-74
2023/03/24 05:47:44;;;;;;;;;;;13.20;99.90;;;;;;2058653;28;19997;-74
2023/03/24 05:48:45;;;;;;;;;;;13.20;99.90;;;;;;2057461;28;19917;-74
2023/03/24 05:49:46;;;;;;;;;;;13.20;99.90;;;;;;2064756;28;19912;-74
2023/03/24 05:50:46;;;;;;;;;;;13.10;99.90;;;;;;2063827;28;19944;-74
2023/03/24 05:51:47;;;;;;;;;;;13.10;99.90;;;;;;2058727;28;19960;-74
2023/03/24 05:52:47;;;;;;;;;;;13.10;99.90;;;;;;2058826;28;19910;-74
2023/03/24 05:53:48;;;;;;;;;;;13.10;99.90;;;;;;2058349;28;19906;-73
2023/03/24 05:54:50;;;;;;;;;;;13.10;99.90;;;;;;2058730;28;19997;-75
2023/03/24 05:55:52;;;;;;;;;;;13.10;99.90;;;;;;2059552;28;19921;-74
2023/03/24 05:56:52;;;;;;;;;;;13.10;99.90;;;;;;2057778;28;19929;-74
2023/03/24 05:57:54;;;;;;;;;;;13.10;99.90;;;;;;2060418;28;19954;-74
2023/03/24 05:58:54;;;;;;;;;;;13.10;99.90;;;;;;2062426;28;19928;-74
2023/03/24 05:59:57;;;;;;;;;;;13.10;99.90;;;;;;2061336;28;19909;-74
2023/03/24 06:00:58;;;;;;;;;;;13.10;99.90;;;;;;2065716;28;19975;-74
2023/03/24 06:01:59;;;;;;;;;;;13.10;99.90;;;;;;2065474;28;19913;-74
2023/03/24 06:03:00;;;;;;;;;;;13.10;99.90;;;;;;2058410;28;20027;-74
2023/03/24 06:04:00;;;;;;;;;;;13.10;99.90;;;;;;2057660;28;19976;-74
2023/03/24 06:05:02;;;;;;;;;;;13.10;99.90;;;;;;2055868;28;19910;-74
2023/03/24 06:06:05;;;;;;;;;;;13.00;99.90;;;;;;2058255;28;20001;-74
2023/03/24 06:07:05;;;;;;;;;;;13.00;99.90;;;;;;2058102;28;19960;-74
2023/03/24 06:08:08;;;;;;;;;;;13.00;99.90;;;;;;2058766;28;20407;-74
2023/03/24 06:09:09;;;;;;;;;;;13.00;99.90;;;;;;2058097;28;19965;-74
2023/03/24 06:10:10;;;;;;;;;;;12.90;99.90;;;;;;2065701;28;20404;-74
2023/03/24 06:11:11;;;;;;;;;;;12.90;99.90;;;;;;2065127;28;19916;-74